Zim Chicago — A8SI9 — position and weather

sailwx.info

Track history (hours):
 
Tides and Currents Weather Stations Pressure Air Temp Water Temp Dewpoint Dewpoint Depression Visibility Wind Speed Wind Dir Waves Ship Positions

Zim Chicago

Last reported at 2016-Aug-28 23:34 UTC. Time now 2016-Aug-30 17:06 UTC.
Position S 32°23' E 031°10'.

Length 334 m; draft 11.4 m.

Type: Cargo ship. MMSI: 636014223.

Date/timePositionNaut miles runAvg speedWind from/ knotsBaromVisibWave heightAir tempDewpointWater temp
2016-Aug-28 23:34S 32°23' E 031°10'1817.9
2016-Aug-28 22:34S 32°15' E 031°30'1717.3
2016-Aug-28 21:34S 32°09' E 031°48'1716.8
2016-Aug-28 20:34S 32°02' E 032°07'1716.8
2016-Aug-28 19:34S 31°55' E 032°24'1716.4
2016-Aug-28 18:31S 31°48' E 032°43'1616.2
2016-Aug-28 17:34S 31°42' E 033°00'1615.8
2016-Aug-28 16:34S 31°35' E 033°17'1615.9
2016-Aug-28 15:34S 31°28' E 033°33'1615.7
2016-Aug-28 14:34S 31°22' E 033°50'1716.5
2016-Aug-28 13:34S 31°16' E 034°08'1616.4
2016-Aug-28 12:33S 31°09' E 034°26'1716.4
2016-Aug-28 11:31S 31°02' E 034°44'1616.5
2016-Aug-28 10:34S 30°56' E 035°01'1816.8
2016-Aug-28 09:29S 30°48' E 035°20'23816.9
2016-Aug-27 19:22S 29°10' E 039°31'6916.3
2016-Aug-27 15:06S 28°43' E 040°43'  
2016-Aug-25 00:28S 19°31' E 056°55'1616.5
2016-Aug-24 23:30S 19°22' E 057°09'  
Track history (hours):
 
Tides and Currents Weather Stations Pressure Air Temp Water Temp Dewpoint Dewpoint Depression Visibility Wind Speed Wind Dir Waves Ship Positions

Zim Chicago

Last reported at 2016-Aug-28 23:34 UTC. Time now 2016-Aug-30 17:06 UTC.
Position S 32°23' E 031°10'.

Length 334 m; draft 11.4 m.

Type: Cargo ship. MMSI: 636014223.

Date/timePositionNaut miles runAvg speedWind from/ knotsBaromVisibWave heightAir tempDewpointWater temp
2016-Aug-28 23:34S 32°23' E 031°10'1817.9
2016-Aug-28 22:34S 32°15' E 031°30'1717.3
2016-Aug-28 21:34S 32°09' E 031°48'1716.8
2016-Aug-28 20:34S 32°02' E 032°07'1716.8
2016-Aug-28 19:34S 31°55' E 032°24'1716.4
2016-Aug-28 18:31S 31°48' E 032°43'1616.2
2016-Aug-28 17:34S 31°42' E 033°00'1615.8
2016-Aug-28 16:34S 31°35' E 033°17'1615.9
2016-Aug-28 15:34S 31°28' E 033°33'1615.7
2016-Aug-28 14:34S 31°22' E 033°50'1716.5
2016-Aug-28 13:34S 31°16' E 034°08'1616.4
2016-Aug-28 12:33S 31°09' E 034°26'1716.4
2016-Aug-28 11:31S 31°02' E 034°44'1616.5
2016-Aug-28 10:34S 30°56' E 035°01'1816.8
2016-Aug-28 09:29S 30°48' E 035°20'23816.9
2016-Aug-27 19:22S 29°10' E 039°31'6916.3
2016-Aug-27 15:06S 28°43' E 040°43'  
2016-Aug-25 00:28S 19°31' E 056°55'1616.5
2016-Aug-24 23:30S 19°22' E 057°09'  

Dump ship's entire track history